Time;durP1;ratioP1;P1;durP2;ratioP2;P2;SDS_P1;SDS_P2;PMS_P1;PMS_P2;Temp;Humidity;BMP_temperature;BMP_pressure;BME280_temperature;BME280_humidity;BME280_pressure;Samples;Min_cycle;Max_cycle;Signal;HPM_P1;HPM_P2
2022/05/23 00:00:57;;;;;;;;;;;;;;;-142.75;100.00;76133.31;5031139;28;19917;-68
2022/05/23 00:03:22;;;;;;;;;;;;;;;-142.75;100.00;76137.25;5031311;28;19921;-68
2022/05/23 00:05:47;;;;;;;;;;;;;;;-142.75;100.00;76137.25;5013383;28;20021;-68
2022/05/23 00:08:12;;;;;;;;;;;;;;;-142.75;100.00;76125.44;5030782;28;20055;-68
2022/05/23 00:10:37;;;;;;;;;;;;;;;-142.75;100.00;76117.56;5031006;28;19944;-68
2022/05/23 00:13:03;;;;;;;;;;;;;;;-142.75;100.00;76113.63;5031050;28;19940;-68
2022/05/23 00:15:28;;;;;;;;;;;;;;;-142.75;100.00;76109.69;5030962;28;19917;-68
2022/05/23 00:17:55;;;;;;;;;;;;;;;-142.75;100.00;76107.72;5030594;28;19971;-67
2022/05/23 00:20:22;;;;;;;;;;;;;;;-142.75;100.00;76107.72;5031069;28;19917;-68
2022/05/23 00:22:47;;;;;;;;;;;;;;;-142.75;100.00;76107.72;5031113;28;19924;-68
2022/05/23 00:25:12;;;;;;;;;;;;;;;-142.75;100.00;76109.69;5031033;28;20371;-68
2022/05/23 00:27:39;;;;;;;;;;;;;;;-142.75;100.00;76115.59;5013097;28;20290;-68
2022/05/23 00:30:08;;;;;;;;;;;;;;;-142.75;100.00;76105.75;5030629;28;19921;-68
2022/05/23 00:35:20;;;;;;;;;;;;;;;-142.75;100.00;76113.63;5034968;28;20297;-68
2022/05/23 00:37:47;;;;;;;;;;;;;;;-142.75;100.00;76121.50;5034689;28;19917;-68
2022/05/23 00:40:24;;;;;;;;;;;;;;;-142.75;100.00;76125.44;5034581;28;20003;-68
2022/05/23 00:45:33;;;;;;;;;;;;;;;-142.75;100.00;76111.66;5034618;28;20409;-68
2022/05/23 00:47:58;;;;;;;;;;;;;;;-142.75;100.00;76115.59;5034448;28;19917;-68
2022/05/23 00:50:23;;;;;;;;;;;;;;;-142.75;100.00;76111.66;5034632;28;19929;-68
2022/05/23 00:52:52;;;;;;;;;;;;;;;-142.75;100.00;76119.53;5023145;28;20292;-68
2022/05/23 00:55:20;;;;;;;;;;;;;;;-142.75;100.00;76125.44;5034013;28;19924;-68
2022/05/23 00:57:47;;;;;;;;;;;;;;;-142.75;100.00;76129.38;5034359;28;19917;-68
2022/05/23 01:00:13;;;;;;;;;;;;;;;-142.75;100.00;76121.50;5016668;28;20011;-68
2022/05/23 01:02:39;;;;;;;;;;;;;;;-142.75;100.00;76125.44;5034440;28;20429;-67
2022/05/23 01:05:05;;;;;;;;;;;;;;;-142.75;100.00;76121.50;5016602;28;19921;-68
2022/05/23 01:07:30;;;;;;;;;;;;;;;-142.75;100.00;76127.41;5034158;28;19948;-67
2022/05/23 01:09:55;;;;;;;;;;;;;;;-142.75;100.00;76123.47;5033783;28;19979;-68
2022/05/23 01:12:21;;;;;;;;;;;;;;;-142.75;100.00;76117.56;5034327;28;20436;-68
2022/05/23 01:14:54;;;;;;;;;;;;;;;-142.75;100.00;76109.69;5016614;28;19925;-68
2022/05/23 01:17:20;;;;;;;;;;;;;;;-142.75;100.00;76113.63;5034174;28;19992;-68
2022/05/23 01:19:45;;;;;;;;;;;;;;;-142.75;100.00;76111.66;5033896;28;19921;-68
2022/05/23 01:22:31;;;;;;;;;;;;;;;-142.75;100.00;76119.53;5016258;28;19921;-68
2022/05/23 01:25:07;;;;;;;;;;;;;;;-142.75;100.00;76123.47;5002991;28;19927;-68
2022/05/23 01:27:34;;;;;;;;;;;;;;;-142.75;100.00;76125.44;5033859;28;19928;-68
2022/05/23 01:29:59;;;;;;;;;;;;;;;-142.75;100.00;76127.41;5015937;28;19960;-68
2022/05/23 01:32:24;;;;;;;;;;;;;;;-142.75;100.00;76141.19;5034004;28;20002;-68
2022/05/23 01:34:50;;;;;;;;;;;;;;;-142.75;100.00;76141.19;5033820;28;19924;-68
2022/05/23 01:37:15;;;;;;;;;;;;;;;-142.75;100.00;76156.94;5033708;28;20395;-68
2022/05/23 01:39:41;;;;;;;;;;;;;;;-142.75;100.00;76160.88;5033548;28;19956;-68
2022/05/23 01:42:06;;;;;;;;;;;;;;;-142.75;100.00;76156.94;5033431;28;19943;-68
2022/05/23 01:44:32;;;;;;;;;;;;;;;-142.75;100.00;76153.00;5033844;28;19923;-68
2022/05/23 01:46:57;;;;;;;;;;;;;;;-142.75;100.00;76151.03;5033767;28;19955;-68
2022/05/23 01:49:23;;;;;;;;;;;;;;;-142.75;100.00;76156.94;5033079;28;20627;-68
2022/05/23 01:51:48;;;;;;;;;;;;;;;-142.75;100.00;76160.88;5033503;28;19921;-68
2022/05/23 01:54:13;;;;;;;;;;;;;;;-142.75;100.00;76164.81;5033420;28;19979;-68
2022/05/23 01:56:38;;;;;;;;;;;;;;;-142.75;100.00;76166.78;5033418;28;19971;-68
2022/05/23 02:01:48;;;;;;;;;;;;;;;-142.75;100.00;76164.81;5033293;28;20016;-68
2022/05/23 02:04:13;;;;;;;;;;;;;;;-142.75;100.00;76164.81;5033245;28;20004;-68
2022/05/23 02:06:38;;;;;;;;;;;;;;;-142.75;100.00;76164.81;5033133;28;20313;-68
2022/05/23 02:09:04;;;;;;;;;;;;;;;-142.75;100.00;76168.75;5032970;28;19917;-68
2022/05/23 02:11:29;;;;;;;;;;;;;;;-142.75;100.00;76168.75;5033200;28;20004;-68
2022/05/23 02:13:54;;;;;;;;;;;;;;;-142.75;100.00;76172.69;5033065;28;19924;-67
2022/05/23 02:16:21;;;;;;;;;;;;;;;-142.75;100.00;76172.69;5032967;28;19917;-68
2022/05/23 02:18:46;;;;;;;;;;;;;;;-142.75;100.00;76188.44;5032676;28;19925;-68
2022/05/23 02:21:11;;;;;;;;;;;;;;;-142.75;100.00;76192.38;5032980;28;20016;-67
2022/05/23 02:23:36;;;;;;;;;;;;;;;-142.75;100.00;76180.56;5033060;28;19917;-68
2022/05/23 02:26:02;;;;;;;;;;;;;;;-142.75;100.00;76180.56;5032760;28;19917;-67
2022/05/23 02:28:27;;;;;;;;;;;;;;;-142.75;100.00;76180.56;5033014;28;19925;-68
2022/05/23 02:30:52;;;;;;;;;;;;;;;-142.75;100.00;76168.75;5032938;28;19921;-68
2022/05/23 02:33:17;;;;;;;;;;;;;;;-142.75;100.00;76158.91;5032789;28;20338;-68
2022/05/23 02:35:43;;;;;;;;;;;;;;;-142.75;100.00;76147.09;5032590;28;20020;-68
2022/05/23 02:38:08;;;;;;;;;;;;;;;-142.75;100.00;76149.06;5032489;28;19917;-68
2022/05/23 02:40:33;;;;;;;;;;;;;;;-142.75;100.00;76137.25;5032585;28;19916;-68
2022/05/23 02:42:58;;;;;;;;;;;;;;;-142.75;100.00;76139.22;5032631;28;19979;-68
2022/05/23 02:45:24;;;;;;;;;;;;;;;-142.75;100.00;76143.16;5016060;28;19932;-68
2022/05/23 02:47:49;;;;;;;;;;;;;;;-142.75;100.00;76147.09;5032414;28;20389;-67
2022/05/23 02:50:15;;;;;;;;;;;;;;;-142.75;100.00;76137.25;5032194;28;19925;-67
2022/05/23 02:52:41;;;;;;;;;;;;;;;-142.75;100.00;76137.25;5032281;28;20416;-68
2022/05/23 02:55:07;;;;;;;;;;;;;;;-142.75;100.00;76131.34;5031664;28;20275;-68
2022/05/23 02:57:32;;;;;;;;;;;;;;;-142.75;100.00;76133.31;5032152;28;19963;-68
2022/05/23 02:59:57;;;;;;;;;;;;;;;-142.75;100.00;76129.38;5032163;28;20037;-68
2022/05/23 03:05:07;;;;;;;;;;;;;;;-142.75;100.00;76121.50;5031365;28;20010;-68
2022/05/23 03:07:33;;;;;;;;;;;;;;;-142.75;100.00;76117.56;5026758;28;20383;-68
2022/05/23 03:09:58;;;;;;;;;;;;;;;-142.75;100.00;76125.44;5012009;28;19929;-68
2022/05/23 03:12:23;;;;;;;;;;;;;;;-142.75;100.00;76139.22;5012403;28;20322;-68
2022/05/23 03:14:49;;;;;;;;;;;;;;;-142.75;100.00;76141.19;4994526;28;19917;-67
2022/05/23 03:17:14;;;;;;;;;;;;;;;-142.75;100.00;76141.19;5012184;28;19925;-68
2022/05/23 03:19:39;;;;;;;;;;;;;;;-142.75;100.00;76139.22;5012063;28;20016;-68
2022/05/23 03:27:40;;;;;;;;;;;;;;;-142.75;100.00;76127.41;5000738;28;19923;-67
2022/05/23 03:30:06;;;;;;;;;;;;;;;-142.75;100.00;76133.31;5031260;28;19925;-68
2022/05/23 03:32:31;;;;;;;;;;;;;;;-142.75;100.00;76135.28;5031569;28;20000;-67
2022/05/23 03:34:56;;;;;;;;;;;;;;;-142.75;100.00;76137.25;5031602;28;20283;-68
2022/05/23 03:37:22;;;;;;;;;;;;;;;-142.75;100.00;76129.38;5031598;28;20590;-67
2022/05/23 03:39:47;;;;;;;;;;;;;;;-142.75;100.00;76123.47;5031211;28;19917;-67
2022/05/23 03:42:13;;;;;;;;;;;;;;;-142.75;100.00;76121.50;5031497;28;19921;-67
2022/05/23 03:44:38;;;;;;;;;;;;;;;-142.75;100.00;76115.59;5031552;28;20505;-68
2022/05/23 03:47:03;;;;;;;;;;;;;;;-142.75;100.00;76113.63;5031393;28;20489;-68
2022/05/23 03:49:29;;;;;;;;;;;;;;;-142.75;100.00;76113.63;5031247;28;19963;-68
2022/05/23 03:51:54;;;;;;;;;;;;;;;-142.75;100.00;76109.69;5031329;28;19948;-67
2022/05/23 03:54:19;;;;;;;;;;;;;;;-142.75;100.00;76109.69;5031361;28;19976;-68
2022/05/23 03:56:44;;;;;;;;;;;;;;;-142.75;100.00;76097.88;5031288;28;19935;-68
2022/05/23 03:59:10;;;;;;;;;;;;;;;-142.75;100.00;76095.91;5030989;28;19917;-67
2022/05/23 04:01:37;;;;;;;;;;;;;;;-142.75;100.00;76090.00;5031370;28;19963;-68
2022/05/23 04:04:02;;;;;;;;;;;;;;;-142.75;100.00;76095.91;5031094;28;19917;-68
2022/05/23 04:06:27;;;;;;;;;;;;;;;-142.75;100.00;76093.94;5030995;28;19939;-68
2022/05/23 04:08:52;;;;;;;;;;;;;;;-142.75;100.00;76097.88;5030803;28;20003;-68
2022/05/23 04:11:18;;;;;;;;;;;;;;;-142.75;100.00;76093.94;5031037;28;19921;-68
2022/05/23 04:13:43;;;;;;;;;;;;;;;-142.75;100.00;76090.00;5031146;28;20006;-67
2022/05/23 04:16:08;;;;;;;;;;;;;;;-142.75;100.00;76091.97;5031062;28;20012;-67
2022/05/23 04:18:34;;;;;;;;;;;;;;;-142.75;100.00;76093.94;5030794;28;19916;-68
2022/05/23 04:20:59;;;;;;;;;;;;;;;-142.75;100.00;76097.88;5031041;28;19972;-68
2022/05/23 04:23:24;;;;;;;;;;;;;;;-142.75;100.00;76091.97;5031054;28;20306;-68
2022/05/23 04:25:50;;;;;;;;;;;;;;;-142.75;100.00;76093.94;5030626;28;19921;-67
2022/05/23 04:28:16;;;;;;;;;;;;;;;-142.75;100.00;76093.94;5030810;28;19917;-67
2022/05/23 04:30:43;;;;;;;;;;;;;;;-142.75;100.00;76080.16;5030788;28;20452;-67
2022/05/23 04:35:54;;;;;;;;;;;;;;;-142.75;100.00;76068.38;5030943;28;19923;-67
2022/05/23 04:38:19;;;;;;;;;;;;;;;-142.75;100.00;76066.41;5030538;28;19921;-67
2022/05/23 04:40:44;;;;;;;;;;;;;;;-142.75;100.00;76056.56;5030861;28;19927;-67
2022/05/23 04:43:10;;;;;;;;;;;;;;;-142.75;100.00;76042.78;5030948;28;19964;-68
2022/05/23 04:45:35;;;;;;;;;;;;;;;-142.75;100.00;76038.84;5030714;28;19924;-68
2022/05/23 04:50:44;;;;;;;;;;;;;;;-142.75;100.00;76023.09;5030826;28;20341;-67
2022/05/23 04:53:09;;;;;;;;;;;;;;;-142.75;100.00;76027.03;5030784;28;19929;-68
2022/05/23 04:55:36;;;;;;;;;;;;;;;-142.75;100.00;76029.00;5030714;28;19917;-68
2022/05/23 04:58:02;;;;;;;;;;;;;;;-142.75;100.00;76023.09;5030562;28;19987;-67
2022/05/23 05:00:29;;;;;;;;;;;;;;;-142.75;100.00;76023.09;5030626;28;20370;-67
2022/05/23 05:02:59;;;;;;;;;;;;;;;-142.75;100.00;76009.31;5030656;28;19936;-68
2022/05/23 05:05:24;;;;;;;;;;;;;;;-142.75;100.00;76003.41;5030575;28;19917;-67
2022/05/23 05:07:49;;;;;;;;;;;;;;;-142.75;100.00;76001.44;5012675;28;20057;-67
2022/05/23 05:10:14;;;;;;;;;;;;;;;-142.75;100.00;76003.41;5030420;28;20074;-67
2022/05/23 05:12:40;;;;;;;;;;;;;;;-142.75;100.00;76001.44;5030582;28;19917;-67
2022/05/23 05:15:05;;;;;;;;;;;;;;;-142.75;100.00;75999.47;5030514;28;20386;-67
2022/05/23 05:17:30;;;;;;;;;;;;;;;-142.75;100.00;76003.41;5013339;28;19929;-68
2022/05/23 05:19:55;;;;;;;;;;;;;;;-142.75;100.00;76003.41;5033818;28;20456;-67
2022/05/23 05:22:21;;;;;;;;;;;;;;;-142.75;100.00;75991.59;5034032;28;19913;-68
2022/05/23 05:24:46;;;;;;;;;;;;;;;-142.75;100.00;75983.72;5033979;28;19927;-67
2022/05/23 05:27:11;;;;;;;;;;;;;;;-142.75;100.00;75975.84;5058185;22;19924;-69
2022/05/23 05:29:37;;;;;;;;;;;;;;;-142.75;100.00;75966.00;5071722;28;19971;-66
2022/05/23 05:32:09;;;;;;;;;;;;;;;-142.75;100.00;75964.03;5071378;28;20003;-68
2022/05/23 05:34:38;;;;;;;;;;;;;;;-142.75;100.00;75954.22;5093044;28;19920;-68
2022/05/23 05:37:10;;;;;;;;;;;;;;;-142.75;100.00;75954.22;5092599;28;19927;-68
2022/05/23 05:39:37;;;;;;;;;;;;;;;-142.75;100.00;75948.31;5093741;28;19923;-67
2022/05/23 05:42:28;;;;;;;;;;;;;;;-142.75;100.00;75936.50;5093914;28;19924;-68
2022/05/23 05:44:58;;;;;;;;;;;;;;;-142.75;100.00;75916.81;5090589;28;19927;-68
2022/05/23 05:47:24;;;;;;;;;;;;;;;-142.75;100.00;75920.75;5092356;28;19955;-68
2022/05/23 05:49:51;;;;;;;;;;;;;;;-142.75;100.00;75914.84;5093457;28;19916;-68
2022/05/23 05:52:18;;;;;;;;;;;;;;;-142.75;100.00;75905.00;5093711;28;19920;-65
2022/05/23 05:54:43;;;;;;;;;;;;;;;-142.75;100.00;75901.06;5092455;28;19956;-68
2022/05/23 05:57:11;;;;;;;;;;;;;;;-142.75;100.00;75905.00;5093476;28;19916;-67
2022/05/23 05:59:36;;;;;;;;;;;;;;;-142.75;100.00;75897.13;5093223;28;20046;-65
2022/05/23 06:02:01;;;;;;;;;;;;;;;-142.75;100.00;75893.19;5093400;28;20011;-67
2022/05/23 06:04:26;;;;;;;;;;;;;;;-142.75;100.00;75883.34;5085505;28;19967;-66
2022/05/23 06:12:19;;;;;;;;;;;;;;;-142.75;100.00;75816.44;5073132;28;19924;-69
2022/05/23 06:14:45;;;;;;;;;;;;;;;-142.75;100.00;75798.72;5072225;28;19928;-65
2022/05/23 06:17:11;;;;;;;;;;;;;;;-142.75;100.00;75779.03;5071784;28;19947;-67
2022/05/23 06:19:40;;;;;;;;;;;;;;;-142.75;100.00;75775.09;5070551;28;20316;-67
2022/05/23 06:22:06;;;;;;;;;;;;;;;-142.75;100.00;75763.28;5083351;28;19916;-68
2022/05/23 06:24:31;;;;;;;;;;;;;;;-142.75;100.00;75767.22;5092062;28;19923;-67
2022/05/23 06:26:57;;;;;;;;;;;;;;;-142.75;100.00;75779.03;5091956;28;20280;-67
2022/05/23 06:29:22;;;;;;;;;;;;;;;-142.75;100.00;75779.03;5091643;28;19969;-67
2022/05/23 06:31:47;;;;;;;;;;;;;;;-142.75;100.00;75786.91;5091979;28;19924;-67
2022/05/23 06:34:12;;;;;;;;;;;;;;;-142.75;100.00;75790.84;5072193;28;20319;-67
2022/05/23 06:36:38;;;;;;;;;;;;;;;-142.75;100.00;75788.88;5057714;28;20400;-68
2022/05/23 06:39:03;;;;;;;;;;;;;;;-142.75;100.00;75796.75;5067167;28;19920;-67
2022/05/23 06:41:28;;;;;;;;;;;;;;;-142.75;100.00;75800.69;5079613;28;19921;-67
2022/05/23 06:43:53;;;;;;;;;;;;;;;-142.75;100.00;75796.75;5070047;28;19920;-67
2022/05/23 06:46:18;;;;;;;;;;;;;;;-142.75;100.00;75798.72;5071269;28;19974;-67
2022/05/23 06:48:43;;;;;;;;;;;;;;;-142.75;100.00;75792.81;5073177;28;19924;-67
2022/05/23 06:51:09;;;;;;;;;;;;;;;-142.75;100.00;75786.91;5078655;28;19917;-67
2022/05/23 06:53:35;;;;;;;;;;;;;;;-142.75;100.00;75782.97;5071565;28;19920;-68
2022/05/23 06:56:00;;;;;;;;;;;;;;;-142.75;100.00;75771.16;5071331;28;20007;-68
2022/05/23 06:58:26;;;;;;;;;;;;;;;-142.75;100.00;75763.28;5070012;28;20007;-66
2022/05/23 07:00:52;;;;;;;;;;;;;;;-142.75;100.00;75759.38;5071257;28;19960;-67
2022/05/23 07:03:18;;;;;;;;;;;;;;;-142.75;100.00;75765.25;5071172;28;20078;-68
2022/05/23 07:14:00;;;;;;;;;;;;;;;-142.75;100.00;75723.94;5071049;28;20062;-68
2022/05/23 07:16:26;;;;;;;;;;;;;;;-142.75;100.00;75727.88;5068751;28;19917;-68
2022/05/23 07:18:51;;;;;;;;;;;;;;;-142.75;100.00;75716.06;5066210;28;20472;-69
2022/05/23 07:21:17;;;;;;;;;;;;;;;-142.75;100.00;75708.19;5070483;28;20432;-66
2022/05/23 07:23:43;;;;;;;;;;;;;;;-142.75;100.00;75704.25;5070746;28;19916;-69
2022/05/23 07:26:10;;;;;;;;;;;;;;;-142.75;100.00;75700.31;5069405;28;19916;-66
2022/05/23 07:28:35;;;;;;;;;;;;;;;-142.75;100.00;75696.38;5068657;28;19917;-67
2022/05/23 07:31:00;;;;;;;;;;;;;;;-142.75;100.00;75686.53;5070476;28;19927;-68
2022/05/23 07:33:25;;;;;;;;;;;;;;;-142.75;100.00;75666.88;5070822;28;19924;-67
2022/05/23 07:35:54;;;;;;;;;;;;;;;-142.75;100.00;75655.06;5069043;28;20073;-67
2022/05/23 07:38:19;;;;;;;;;;;;;;;-142.75;100.00;75635.38;5070196;28;20378;-67
2022/05/23 07:40:48;;;;;;;;;;;;;;;-142.75;100.00;75617.66;5070163;28;19917;-66
2022/05/23 07:43:15;;;;;;;;;;;;;;;-142.75;100.00;75609.78;5070433;28;19916;-68
2022/05/23 07:45:40;;;;;;;;;;;;;;;-142.75;100.00;75599.94;5070328;28;19949;-68
2022/05/23 07:48:06;;;;;;;;;;;;;;;-142.75;100.00;75592.09;5070101;28;20015;-68
2022/05/23 07:50:31;;;;;;;;;;;;;;;-142.75;100.00;75574.38;5070217;28;19920;-66
2022/05/23 08:01:07;;;;;;;;;;;;;;;-142.75;100.00;75501.56;5089620;28;20019;-67
2022/05/23 08:03:33;;;;;;;;;;;;;;;-142.75;100.00;75481.88;5077727;28;19971;-68
2022/05/23 08:05:59;;;;;;;;;;;;;;;-142.75;100.00;75474.00;5071205;28;19917;-69
2022/05/23 08:08:24;;;;;;;;;;;;;;;-142.75;100.00;75460.22;5070816;28;20380;-68
2022/05/23 08:10:49;;;;;;;;;;;;;;;-142.75;100.00;75442.50;5091264;28;19916;-69
2022/05/23 08:13:14;;;;;;;;;;;;;;;-142.75;100.00;75422.84;5091257;28;19920;-69
2022/05/23 08:15:40;;;;;;;;;;;;;;;-142.75;100.00;75409.06;5091250;28;20335;-68
2022/05/23 08:18:06;;;;;;;;;;;;;;;-142.75;100.00;75391.34;5091151;28;20331;-69
2022/05/23 08:20:31;;;;;;;;;;;;;;;-142.75;100.00;75375.59;5091289;28;20540;-68
2022/05/23 08:22:57;;;;;;;;;;;;;;;-142.75;100.00;75357.91;5091194;28;19922;-68
2022/05/23 08:25:23;;;;;;;;;;;;;;;-142.75;100.00;75365.75;5089820;28;19951;-68
2022/05/23 08:27:48;;;;;;;;;;;;;;;-142.75;100.00;75350.03;5090707;28;19915;-66
2022/05/23 08:30:13;;;;;;;;;;;;;;;-142.75;100.00;75342.16;5091186;28;19924;-68
2022/05/23 08:32:38;;;;;;;;;;;;;;;-142.75;100.00;75334.28;5091380;28;20369;-68
2022/05/23 08:35:04;;;;;;;;;;;;;;;-142.75;100.00;75330.34;5091261;28;19923;-68
2022/05/23 08:37:29;;;;;;;;;;;;;;;-142.75;100.00;75316.56;5090927;28;19916;-69
2022/05/23 08:39:54;;;;;;;;;;;;;;;-142.75;100.00;75310.66;5090829;28;20343;-69
2022/05/23 08:42:32;;;;;;;;;;;;;;;-142.75;100.00;75300.81;5090749;28;19922;-65
2022/05/23 08:45:12;;;;;;;;;;;;;;;-142.75;100.00;75281.16;5090976;28;20011;-68
2022/05/23 08:47:43;;;;;;;;;;;;;;;-142.75;100.00;75275.25;5090989;28;19916;-69
2022/05/23 08:50:16;;;;;;;;;;;;;;;-142.75;100.00;75277.22;5071841;28;19923;-69
2022/05/23 08:52:47;;;;;;;;;;;;;;;-142.75;100.00;75267.38;5071828;28;19927;-68
2022/05/23 08:55:18;;;;;;;;;;;;;;;-142.75;100.00;75253.59;5074564;28;19922;-68
2022/05/23 08:58:00;;;;;;;;;;;;;;;-142.75;100.00;75255.56;5074388;28;19921;-67
2022/05/23 09:00:30;;;;;;;;;;;;;;;-142.75;100.00;75245.72;5074643;28;19920;-69
2022/05/23 09:03:13;;;;;;;;;;;;;;;-142.75;100.00;75228.00;5084385;28;19916;-68
2022/05/23 09:05:44;;;;;;;;;;;;;;;-142.75;100.00;75216.22;5094860;28;20339;-68
2022/05/23 09:08:14;;;;;;;;;;;;;;;-142.75;100.00;75200.47;5094491;28;19962;-68
2022/05/23 09:10:45;;;;;;;;;;;;;;;-142.75;100.00;75151.28;5093123;28;19920;-68
2022/05/23 09:13:12;;;;;;;;;;;;;;;-142.75;100.00;75127.66;5093178;28;19920;-68
2022/05/23 09:15:37;;;;;;;;;;;;;;;-142.75;100.00;75119.78;5094485;28;19923;-68
2022/05/23 09:18:07;;;;;;;;;;;;;;;-142.75;100.00;75133.56;5094011;28;19920;-68
2022/05/23 09:20:41;;;;;;;;;;;;;;;-142.75;100.00;75137.50;5094410;28;19916;-68
2022/05/23 09:23:10;;;;;;;;;;;;;;;-142.75;100.00;75153.25;5094360;28;19955;-68
2022/05/23 09:25:36;;;;;;;;;;;;;;;-142.75;100.00;75170.94;5092953;28;19955;-68
2022/05/23 09:28:07;;;;;;;;;;;;;;;-142.75;100.00;75202.44;5093757;28;19951;-68
2022/05/23 09:30:34;;;;;;;;;;;;;;;-142.75;100.00;75216.22;5093913;28;19961;-68
2022/05/23 09:32:59;;;;;;;;;;;;;;;-142.75;100.00;75220.16;5094213;28;20310;-68
2022/05/23 09:35:26;;;;;;;;;;;;;;;-142.75;100.00;75214.25;5094139;28;19962;-68
2022/05/23 09:38:10;;;;;;;;;;;;;;;-142.75;100.00;75208.34;5093795;28;19917;-68
2022/05/23 09:40:37;;;;;;;;;;;;;;;-142.75;100.00;75212.28;5093903;28;19948;-68
2022/05/23 09:49:08;;;;;;;;;;;;;;;-142.75;100.00;75220.16;5093842;28;19946;-68
2022/05/23 09:51:51;;;;;;;;;;;;;;;-142.75;100.00;75233.91;5093355;28;19942;-68
2022/05/23 09:54:22;;;;;;;;;;;;;;;-142.75;100.00;75237.84;5093793;28;19920;-68
2022/05/23 09:56:48;;;;;;;;;;;;;;;-142.75;100.00;75235.88;5094028;28;20297;-68
2022/05/23 09:59:31;;;;;;;;;;;;;;;-142.75;100.00;75235.88;5093389;28;20157;-68
2022/05/23 10:01:56;;;;;;;;;;;;;;;-142.75;100.00;75224.09;5093564;28;19966;-68
2022/05/23 10:04:23;;;;;;;;;;;;;;;-142.75;100.00;75212.28;5093305;28;19955;-68
2022/05/23 10:06:50;;;;;;;;;;;;;;;-142.75;100.00;75220.16;5093262;28;20399;-68
2022/05/23 10:09:44;;;;;;;;;;;;;;;-142.75;100.00;75228.00;5093241;28;20393;-67
2022/05/23 10:12:10;;;;;;;;;;;;;;;-142.75;100.00;75231.94;5079562;28;19927;-68
2022/05/23 10:14:40;;;;;;;;;;;;;;;-142.75;100.00;75228.00;5093643;28;20333;-68
2022/05/23 10:17:06;;;;;;;;;;;;;;;-142.75;100.00;75222.13;5092006;28;19916;-68
2022/05/23 10:19:33;;;;;;;;;;;;;;;-142.75;100.00;75204.41;5092948;28;19920;-68
2022/05/23 10:22:04;;;;;;;;;;;;;;;-142.75;100.00;75176.84;5093250;28;20404;-69
2022/05/23 10:24:30;;;;;;;;;;;;;;;-142.75;100.00;75157.19;5092996;28;19916;-68
2022/05/23 10:26:59;;;;;;;;;;;;;;;-142.75;100.00;75133.56;5092884;28;21575;-68
2022/05/23 10:29:43;;;;;;;;;;;;;;;-142.75;100.00;75106.00;5092851;28;21307;-68
2022/05/23 10:32:10;;;;;;;;;;;;;;;-142.75;100.00;75090.28;5091656;28;19922;-68
2022/05/23 10:34:41;;;;;;;;;;;;;;;-142.75;100.00;75078.47;5092738;28;19989;-68
2022/05/23 10:37:08;;;;;;;;;;;;;;;-142.75;100.00;75039.13;5092763;28;19916;-68
2022/05/23 10:42:36;;;;;;;;;;;;;;;-142.75;100.00;74905.31;5055231;28;20396;-68
2022/05/23 10:45:20;;;;;;;;;;;;;;;-142.75;100.00;74885.63;5091588;28;19959;-69
2022/05/23 10:48:01;;;;;;;;;;;;;;;-142.75;100.00;74850.22;5092748;28;19923;-68
2022/05/23 10:50:45;;;;;;;;;;;;;;;-142.75;100.00;74785.28;5092954;28;19916;-68
2022/05/23 10:53:15;;;;;;;;;;;;;;;-142.75;100.00;74779.38;5092630;28;19920;-69
2022/05/23 10:55:42;;;;;;;;;;;;;;;-142.75;100.00;74732.16;5092416;28;19947;-68
2022/05/23 10:58:13;;;;;;;;;;;;;;;-142.75;100.00;74673.13;5092131;28;20366;-68
2022/05/23 11:00:58;;;;;;;;;;;;;;;-142.75;100.00;74625.91;5092465;28;19930;-68
2022/05/23 11:03:44;;;;;;;;;;;;;;;-142.75;100.00;74641.66;5081379;28;19988;-68
2022/05/23 11:06:12;;;;;;;;;;;;;;;-142.75;100.00;74618.03;5066852;28;19923;-68
2022/05/23 11:08:56;;;;;;;;;;;;;;;-142.75;100.00;74633.78;5071726;28;20271;-69
2022/05/23 11:11:39;;;;;;;;;;;;;;;-142.75;100.00;74663.28;5073547;28;20334;-67
2022/05/23 11:14:23;;;;;;;;;;;;;;;-142.75;100.00;74684.94;5092141;28;19928;-69
2022/05/23 11:17:08;;;;;;;;;;;;;;;-142.75;100.00;74712.47;5071061;28;19920;-69
2022/05/23 11:19:50;;;;;;;;;;;;;;;-142.75;100.00;74747.91;5030563;28;19920;-69
2022/05/23 11:22:28;;;;;;;;;;;;;;;-142.75;100.00;74771.50;5071817;28;19917;-68
2022/05/23 11:24:54;;;;;;;;;;;;;;;-142.75;100.00;74791.19;5071779;28;19927;-67
2022/05/23 11:35:42;;;;;;;;;;;;;;;-142.75;100.00;74785.28;5050846;28;19924;-66
2022/05/23 11:38:08;;;;;;;;;;;;;;;-142.75;100.00;74789.22;5050636;28;20290;-66
2022/05/23 11:40:36;;;;;;;;;;;;;;;-142.75;100.00;74787.25;5041186;28;20330;-66
2022/05/23 11:43:09;;;;;;;;;;;;;;;-142.75;100.00;74783.31;5031009;28;19925;-66
2022/05/23 11:48:36;;;;;;;;;;;;;;;-142.75;100.00;74775.44;5050308;28;19924;-66
2022/05/23 11:51:17;;;;;;;;;;;;;;;-142.75;100.00;74783.31;5050821;28;19920;-66
2022/05/23 11:54:00;;;;;;;;;;;;;;;-142.75;100.00;74781.34;5050574;28;19917;-66
2022/05/23 11:56:45;;;;;;;;;;;;;;;-142.75;100.00;74767.56;5032649;28;20000;-66
2022/05/23 11:59:25;;;;;;;;;;;;;;;-142.75;100.00;74771.50;5047494;28;19960;-67
2022/05/23 12:02:09;;;;;;;;;;;;;;;-142.75;100.00;74755.78;5051253;28;20393;-67
2022/05/23 12:04:55;;;;;;;;;;;;;;;-142.75;100.00;74769.53;5050628;28;19917;-67
2022/05/23 12:07:44;;;;;;;;;;;;;;;-142.75;100.00;74765.59;5050547;28;20046;-66
2022/05/23 12:10:22;;;;;;;;;;;;;;;-142.75;100.00;74775.44;5050350;28;19917;-66
2022/05/23 12:12:48;;;;;;;;;;;;;;;-142.75;100.00;74783.31;5050659;28;19917;-67
2022/05/23 12:15:32;;;;;;;;;;;;;;;-142.75;100.00;74787.25;5050644;28;20545;-68
2022/05/23 12:17:59;;;;;;;;;;;;;;;-142.75;100.00;74806.94;5050134;28;20015;-66
2022/05/23 12:20:25;;;;;;;;;;;;;;;-142.75;100.00;74830.53;5046715;28;19928;-66
2022/05/23 12:23:16;;;;;;;;;;;;;;;-142.75;100.00;74826.59;5036819;28;19917;-66
2022/05/23 12:25:41;;;;;;;;;;;;;;;-142.75;100.00;74846.28;5030375;28;20329;-66
2022/05/23 12:28:08;;;;;;;;;;;;;;;-142.75;100.00;74846.28;5015988;28;19967;-66
2022/05/23 12:30:35;;;;;;;;;;;;;;;-142.75;100.00;74860.06;5034473;28;19921;-67
2022/05/23 12:33:00;;;;;;;;;;;;;;;-142.75;100.00;74869.88;5034569;28;20015;-67
2022/05/23 12:35:34;;;;;;;;;;;;;;;-142.75;100.00;74875.78;5034354;28;20385;-66
2022/05/23 12:38:10;;;;;;;;;;;;;;;-142.75;100.00;74881.69;5052865;28;19959;-66
2022/05/23 12:41:07;;;;;;;;;;;;;;;-142.75;100.00;74885.63;5054087;28;20315;-67
2022/05/23 12:43:45;;;;;;;;;;;;;;;-142.75;100.00;74905.31;5015905;28;19949;-67
2022/05/23 12:46:29;;;;;;;;;;;;;;;-142.75;100.00;74901.38;5050699;28;19939;-67
2022/05/23 12:49:07;;;;;;;;;;;;;;;-142.75;100.00;74907.28;5050073;28;19944;-66
2022/05/23 12:51:39;;;;;;;;;;;;;;;-142.75;100.00;74907.28;5044768;28;19925;-67
2022/05/23 12:54:13;;;;;;;;;;;;;;;-142.75;100.00;74926.94;5039980;28;19916;-67
2022/05/23 12:56:57;;;;;;;;;;;;;;;-142.75;100.00;74928.91;5033853;28;19921;-67
2022/05/23 12:59:23;;;;;;;;;;;;;;;-142.75;100.00;74954.50;5033454;28;19921;-68
2022/05/23 13:01:53;;;;;;;;;;;;;;;-142.75;100.00;74974.19;5036043;28;20332;-67
2022/05/23 13:04:37;;;;;;;;;;;;;;;-142.75;100.00;74995.81;5053595;28;20019;-66
2022/05/23 13:07:11;;;;;;;;;;;;;;;-142.75;100.00;75005.66;5046532;28;19924;-66
2022/05/23 13:09:56;;;;;;;;;;;;;;;-142.75;100.00;75019.44;5034191;28;19917;-66
2022/05/23 13:12:25;;;;;;;;;;;;;;;-142.75;100.00;75031.25;5033594;28;19928;-67
2022/05/23 13:14:55;;;;;;;;;;;;;;;-142.75;100.00;75054.84;5033402;28;20286;-67
2022/05/23 13:17:33;;;;;;;;;;;;;;;-142.75;100.00;75076.50;5033363;28;19917;-68
2022/05/23 13:22:42;;;;;;;;;;;;;;;-142.75;100.00;75123.72;5043035;28;20350;-67
2022/05/23 13:25:07;;;;;;;;;;;;;;;-142.75;100.00;75135.53;5034875;28;19968;-66
2022/05/23 13:27:42;;;;;;;;;;;;;;;-142.75;100.00;75139.47;5033255;28;19917;-66
2022/05/23 13:30:17;;;;;;;;;;;;;;;-142.75;100.00;75137.50;5032884;28;19924;-66
2022/05/23 13:32:43;;;;;;;;;;;;;;;-142.75;100.00;75141.44;5033573;28;19917;-67